Time;durP1;ratioP1;P1;durP2;ratioP2;P2;SDS_P1;SDS_P2;PMS_P1;PMS_P2;Temp;Humidity;BMP_temperature;BMP_pressure;BME280_temperature;BME280_humidity;BME280_pressure;Samples;Min_cycle;Max_cycle;Signal;HPM_P1;HPM_P2
2021/06/17 00:00:22;;;;;;;10.45;7.35;;;;;;;16.17;100.00;97051.59;5084477;28;20114;-62
2021/06/17 00:02:48;;;;;;;9.82;6.78;;;;;;;15.86;100.00;97001.44;5085219;28;20529;-61
2021/06/17 00:05:18;;;;;;;12.68;7.65;;;;;;;15.79;100.00;97058.13;5084537;28;20038;-61
2021/06/17 00:07:44;;;;;;;12.40;7.55;;;;;;;15.85;100.00;97056.56;5084086;28;20036;-62
2021/06/17 00:10:15;;;;;;;11.93;7.97;;;;;;;15.81;100.00;97044.56;5084604;28;20088;-59
2021/06/17 00:12:40;;;;;;;12.45;8.07;;;;;;;15.23;100.00;96977.31;5083200;28;20128;-59
2021/06/17 00:15:10;;;;;;;9.88;7.55;;;;;;;15.74;100.00;97025.06;5082659;28;20478;-61
2021/06/17 00:17:36;;;;;;;14.10;9.15;;;;;;;15.45;100.00;97048.66;5084743;28;20120;-59
2021/06/17 00:20:03;;;;;;;18.20;9.70;;;;;;;15.52;100.00;97048.66;5084853;28;20480;-59
2021/06/17 00:22:29;;;;;;;11.32;8.82;;;;;;;15.40;100.00;97023.94;5084473;28;20419;-59
2021/06/17 00:24:54;;;;;;;17.10;8.68;;;;;;;15.61;100.00;97040.66;5084636;28;20023;-61
2021/06/17 00:27:21;;;;;;;11.57;8.30;;;;;;;15.40;100.00;96979.28;5084477;28;20024;-60
2021/06/17 00:29:47;;;;;;;10.32;8.10;;;;;;;15.84;100.00;97046.56;5084442;28;20028;-61
2021/06/17 00:32:12;;;;;;;13.52;8.77;;;;;;;15.88;100.00;97038.97;5093202;28;20035;-59
2021/06/17 00:34:37;;;;;;;18.08;8.40;;;;;;;15.56;100.00;96982.44;5103234;28;20479;-59
2021/06/17 00:37:03;;;;;;;14.52;7.53;;;;;;;15.75;100.00;97012.69;5104242;28;20031;-59
2021/06/17 00:39:29;;;;;;;10.65;7.15;;;;;;;15.51;100.00;96990.41;5104754;28;20032;-59
2021/06/17 00:41:54;;;;;;;8.65;6.72;;;;;;;15.91;100.00;97032.56;5103941;28;20506;-62
2021/06/17 00:44:20;;;;;;;8.30;6.57;;;;;;;15.99;100.00;97033.34;5102873;28;20235;-60
2021/06/17 00:46:45;;;;;;;12.23;6.65;;;;;;;15.89;100.00;97029.38;5102150;28;20107;-60
2021/06/17 00:49:10;;;;;;;11.18;7.53;;;;;;;15.86;100.00;97019.03;5104866;28;20032;-62
2021/06/17 00:51:36;;;;;;;10.80;6.75;;;;;;;15.92;100.00;97017.41;5102308;28;20038;-60
2021/06/17 00:54:02;;;;;;;10.35;7.03;;;;;;;15.88;100.00;97015.81;5104362;28;20553;-60
2021/06/17 00:56:27;;;;;;;9.77;7.63;;;;;;;15.46;100.00;97027.91;5104210;28;20032;-62
2021/06/17 00:58:53;;;;;;;13.00;7.90;;;;;;;15.63;100.00;97020.72;5104396;28;20031;-59
2021/06/17 01:01:19;;;;;;;9.00;6.88;;;;;;;15.25;100.00;96954.59;5103719;28;20050;-60
2021/06/17 01:03:44;;;;;;;12.07;6.72;;;;;;;15.23;100.00;96957.78;5103860;28;20036;-60
2021/06/17 01:06:10;;;;;;;10.02;6.75;;;;;;;14.99;100.00;96937.09;5103819;28;20453;-60
2021/06/17 01:09:05;;;;;;;14.52;7.22;;;;;;;15.38;100.00;97009.59;5104266;28;20126;-60
2021/06/17 01:11:54;;;;;;;13.30;8.50;;;;;;;15.47;100.00;96996.03;5103570;28;20106;-60
2021/06/17 01:14:28;;;;;;;16.83;8.20;;;;;;;15.13;100.00;96986.50;5102672;28;20448;-60
2021/06/17 01:17:14;;;;;;;17.83;9.00;;;;;;;14.91;100.00;96962.59;5103570;28;20031;-60
2021/06/17 01:20:03;;;;;;;15.35;8.80;;;;;;;15.25;100.00;96999.22;5102289;28;20036;-60
2021/06/17 01:22:47;;;;;;;20.35;8.45;;;;;;;14.96;100.00;96982.53;5101841;28;20048;-60
2021/06/17 01:25:28;;;;;;;18.23;8.63;;;;;;;15.16;100.00;97002.44;5103349;28;20063;-60
2021/06/17 01:28:12;;;;;;;13.60;7.70;;;;;;;14.97;100.00;96972.16;5102441;28;20122;-61
2021/06/17 01:30:50;;;;;;;14.15;7.63;;;;;;;15.22;100.00;96995.25;5103538;28;20036;-61
2021/06/17 01:33:17;;;;;;;12.05;7.88;;;;;;;15.33;100.00;97004.41;5102569;28;20032;-61
2021/06/17 01:35:46;;;;;;;14.48;8.27;;;;;;;14.40;100.00;96942.72;5103933;28;20545;-62
2021/06/17 01:38:17;;;;;;;11.52;8.20;;;;;;;14.60;100.00;96955.06;5104228;28;20040;-61
2021/06/17 01:40:44;;;;;;;12.10;8.68;;;;;;;14.99;100.00;97003.25;5103954;28;20126;-59
2021/06/17 01:43:10;;;;;;;16.55;9.60;;;;;;;14.39;100.00;96949.47;5104184;28;20241;-63
2021/06/17 01:45:36;;;;;;;15.02;9.98;;;;;;;14.84;100.00;96993.31;5101925;28;20036;-60
2021/06/17 01:48:04;;;;;;;20.30;9.75;;;;;;;14.53;100.00;96999.66;5102288;28;20584;-59
2021/06/17 01:50:31;;;;;;;20.90;10.60;;;;;;;14.61;100.00;97004.84;5102056;28;20023;-60
2021/06/17 01:52:58;;;;;;;15.93;9.95;;;;;;;14.80;100.00;97015.63;5103133;28;20063;-60
2021/06/17 01:55:29;;;;;;;16.17;8.85;;;;;;;14.78;100.00;96992.09;5102006;28;20031;-63
2021/06/17 01:57:56;;;;;;;12.63;9.57;;;;;;;14.83;100.00;96988.91;5102566;28;20036;-60
2021/06/17 02:00:23;;;;;;;17.27;9.80;;;;;;;14.92;100.00;96986.53;5103486;28;20108;-63
2021/06/17 02:02:49;;;;;;;16.95;10.15;;;;;;;14.75;100.00;96953.84;5103859;28;20492;-60
2021/06/17 02:05:15;;;;;;;14.38;9.13;;;;;;;14.42;100.00;97008.03;5103095;28;20039;-60
2021/06/17 02:07:44;;;;;;;14.88;9.77;;;;;;;14.16;100.00;96949.03;5104415;28;20084;-62
2021/06/17 02:10:11;;;;;;;10.43;9.07;;;;;;;13.90;100.00;96846.34;5103191;28;20480;-61
2021/06/17 02:12:40;;;;;;;16.05;8.90;;;;;;;14.58;100.00;96993.69;5103915;28;20077;-59
2021/06/17 02:15:06;;;;;;;16.58;10.18;;;;;;;14.63;100.00;96996.09;5101930;28;20067;-60
2021/06/17 02:17:32;;;;;;;16.35;10.48;;;;;;;14.71;100.00;96995.72;5103260;28;20036;-63
2021/06/17 02:19:58;;;;;;;15.75;9.18;;;;;;;14.88;100.00;97002.47;5103227;28;20118;-62
2021/06/17 02:22:24;;;;;;;12.45;8.95;;;;;;;14.61;100.00;96959.44;5102811;28;20038;-60
2021/06/17 02:24:55;;;;;;;18.15;10.52;;;;;;;14.77;100.00;96957.06;5103288;28;20138;-63
2021/06/17 02:27:28;;;;;;;19.75;11.35;;;;;;;14.98;100.00;97002.44;5101731;28;20044;-60
2021/06/17 02:29:57;;;;;;;21.73;12.45;;;;;;;15.05;100.00;97001.66;5102622;28;20467;-60
2021/06/17 02:32:25;;;;;;;14.35;9.70;;;;;;;14.70;100.00;96965.44;5106499;28;20027;-59
2021/06/17 02:34:53;;;;;;;16.25;8.93;;;;;;;14.87;100.00;97000.88;5106664;28;20502;-59
2021/06/17 02:37:19;;;;;;;14.73;10.13;;;;;;;14.34;100.00;96994.47;5106847;28;20046;-59
2021/06/17 02:39:49;;;;;;;14.35;10.68;;;;;;;12.09;100.00;96599.63;5106713;27;20040;-62
2021/06/17 02:42:18;;;;;;;17.15;8.90;;;;;;;14.43;100.00;96965.00;5104804;28;20036;-59
2021/06/17 02:44:46;;;;;;;14.90;9.95;;;;;;;14.10;100.00;96945.06;5106712;28;20036;-59
2021/06/17 02:47:12;;;;;;;12.95;9.75;;;;;;;14.66;100.00;96995.28;5106715;28;20040;-60
2021/06/17 02:49:39;;;;;;;17.13;10.35;;;;;;;14.47;100.00;96970.59;5106987;28;20054;-59
2021/06/17 02:52:05;;;;;;;12.35;9.05;;;;;;;14.28;100.00;97018.34;5106359;28;20038;-59
2021/06/17 02:54:33;;;;;;;20.27;10.88;;;;;;;14.24;100.00;96975.72;5106353;28;20035;-60
2021/06/17 02:57:24;;;;;;;17.98;11.25;;;;;;;14.42;100.00;96968.19;5106053;28;20027;-60
2021/06/17 03:00:13;;;;;;;15.85;10.40;;;;;;;14.76;100.00;97016.81;5106014;28;20545;-61
2021/06/17 03:03:03;;;;;;;11.30;8.63;;;;;;;14.84;100.00;97021.19;5106177;28;20036;-60
2021/06/17 03:05:35;;;;;;;13.68;10.50;;;;;;;14.46;100.00;96958.63;5094629;28;20150;-59
2021/06/17 03:08:16;;;;;;;12.75;9.27;;;;;;;15.05;100.00;97012.81;5105222;28;20035;-59
2021/06/17 03:10:54;;;;;;;11.25;7.57;;;;;;;15.15;100.00;97017.59;5104440;28;20058;-60
2021/06/17 03:13:26;;;;;;;10.00;8.35;;;;;;;15.14;100.00;97027.16;5104812;28;20131;-60
2021/06/17 03:15:52;;;;;;;11.55;7.47;;;;;;;14.43;100.00;96916.84;5104099;28;20050;-60
2021/06/17 03:18:19;;;;;;;8.35;6.10;;;;;;;14.64;100.00;96955.84;5106494;28;20035;-62
2021/06/17 03:20:45;;;;;;;8.23;5.43;;;;;;;14.33;100.00;96904.50;5105360;28;20046;-59
2021/06/17 03:23:22;;;;;;;10.10;6.75;;;;;;;15.14;100.00;97022.34;5104077;28;20058;-60
2021/06/17 03:25:51;;;;;;;8.80;6.13;;;;;;;15.17;100.00;97048.69;5103940;28;20543;-59
2021/06/17 03:28:18;;;;;;;9.68;6.90;;;;;;;12.31;100.00;96639.41;5106527;28;20032;-60
2021/06/17 03:30:48;;;;;;;12.32;7.82;;;;;;;15.09;100.00;97035.94;5105554;28;20520;-61
2021/06/17 03:33:17;;;;;;;13.05;6.85;;;;;;;15.31;100.00;97043.09;5104158;28;20089;-60
2021/06/17 03:35:46;;;;;;;9.43;5.75;;;;;;;15.04;100.00;96977.75;5105316;28;20501;-59
2021/06/17 03:38:12;;;;;;;10.48;5.82;;;;;;;15.60;100.00;97022.28;5105933;28;20097;-60
2021/06/17 03:40:39;;;;;;;10.57;6.40;;;;;;;15.83;100.00;97024.63;5104900;28;20027;-60
2021/06/17 03:43:06;;;;;;;7.60;5.25;;;;;;;13.89;100.00;96699.97;5105722;28;20071;-61
2021/06/17 03:45:33;;;;;;;6.68;6.00;;;;;;;16.05;100.00;97028.91;5105323;28;20031;-59
2021/06/17 03:47:59;;;;;;;9.40;5.93;;;;;;;16.04;100.00;97025.34;5104211;28;20046;-61
2021/06/17 03:50:25;;;;;;;10.65;6.60;;;;;;;16.10;100.00;97028.50;5105188;27;20039;-59
2021/06/17 03:52:54;;;;;;;12.88;7.78;;;;;;;15.94;100.00;97020.59;5105365;28;20035;-59
2021/06/17 03:55:21;;;;;;;10.00;6.05;;;;;;;15.74;100.00;97041.81;5102806;28;20295;-60
2021/06/17 03:57:49;;;;;;;18.65;7.85;;;;;;;15.84;100.00;96999.06;5103308;28;20394;-59
2021/06/17 04:00:16;;;;;;;8.13;6.53;;;;;;;16.22;100.00;97037.22;5102551;28;20023;-61
2021/06/17 04:02:43;;;;;;;11.38;7.35;;;;;;;16.36;99.71;97041.94;5104632;27;20108;-61
2021/06/17 04:05:10;;;;;;;15.10;7.50;;;;;;;16.41;99.34;97075.84;5104403;28;20035;-60
2021/06/17 04:07:39;;;;;;;8.30;6.60;;;;;;;16.76;98.46;97043.28;5104074;28;20039;-60
2021/06/17 04:10:06;;;;;;;15.77;6.18;;;;;;;16.32;97.49;96971.25;5103003;28;20405;-62
2021/06/17 04:12:34;;;;;;;10.00;5.80;;;;;;;16.96;97.36;97033.16;5103250;28;20130;-59
2021/06/17 04:15:01;;;;;;;17.33;5.70;;;;;;;17.13;96.29;97051.81;5104883;28;20036;-60
2021/06/17 04:17:31;;;;;;;8.70;6.85;;;;;;;17.04;98.43;97037.50;5104315;28;20044;-61
2021/06/17 04:19:59;;;;;;;7.90;6.32;;;;;;;17.04;95.32;97010.28;5104170;28;20421;-59
2021/06/17 04:22:26;;;;;;;10.13;5.85;;;;;;;16.95;94.86;96970.78;5104200;28;20062;-61
2021/06/17 04:24:56;;;;;;;13.27;6.55;;;;;;;17.28;95.06;96994.47;5105106;28;20047;-63
2021/06/17 04:27:22;;;;;;;13.15;7.13;;;;;;;17.68;93.60;97063.72;5104370;28;20040;-61
2021/06/17 04:29:51;;;;;;;10.70;5.35;;;;;;;17.56;93.01;97014.59;5104719;28;20455;-60
2021/06/17 04:32:17;;;;;;;8.82;5.00;;;;;;;17.85;88.40;97034.69;5104063;28;20497;-61
2021/06/17 04:34:44;;;;;;;7.38;4.70;;;;;;;16.98;87.61;96890.81;5104687;27;20044;-60
2021/06/17 04:37:15;;;;;;;10.35;5.50;;;;;;;18.13;87.52;97054.78;5103830;28;20417;-63
2021/06/17 04:39:45;;;;;;;7.82;5.32;;;;;;;18.04;88.40;97028.47;5103332;28;20253;-61
2021/06/17 04:42:12;;;;;;;7.80;4.63;;;;;;;18.47;89.00;97063.19;5103913;28;20039;-60
2021/06/17 04:44:40;;;;;;;7.88;4.90;;;;;;;18.69;86.96;97070.09;5104624;28;20513;-60
2021/06/17 04:47:07;;;;;;;9.93;5.15;;;;;;;18.67;85.71;97044.47;5103756;28;20122;-61
2021/06/17 04:49:34;;;;;;;10.05;6.07;;;;;;;18.69;86.86;97036.41;5104376;28;20028;-60
2021/06/17 04:52:05;;;;;;;10.25;5.78;;;;;;;19.17;86.53;97095.81;5103543;28;20032;-60
2021/06/17 04:54:37;;;;;;;7.88;5.38;;;;;;;18.68;87.88;97012.38;5104029;28;20028;-60
2021/06/17 04:57:02;;;;;;;6.18;5.30;;;;;;;18.57;87.38;97003.34;5103505;28;20055;-61
2021/06/17 04:59:29;;;;;;;6.03;5.05;;;;;;;19.10;86.43;97100.75;5104117;28;20030;-62
2021/06/17 05:01:55;;;;;;;6.15;5.60;;;;;;;18.98;88.43;97087.31;5102578;28;20093;-59
2021/06/17 05:04:20;;;;;;;11.93;6.00;;;;;;;18.62;90.45;97092.63;5103948;28;20106;-60
2021/06/17 05:07:11;;;;;;;8.38;6.18;;;;;;;18.62;93.09;97092.63;5103744;28;20035;-60
2021/06/17 05:12:21;;;;;;;7.80;5.82;;;;;;;19.37;84.16;97105.19;5103584;28;20051;-59
2021/06/17 05:14:46;;;;;;;9.13;5.78;;;;;;;19.51;82.52;97095.69;5102503;28;20575;-59
2021/06/17 05:17:12;;;;;;;7.88;4.97;;;;;;;19.31;85.06;97094.84;5102169;28;20486;-60
2021/06/17 05:19:37;;;;;;;8.23;5.20;;;;;;;19.73;84.51;97098.94;5103910;28;20410;-62
2021/06/17 05:22:03;;;;;;;8.05;5.35;;;;;;;19.57;81.04;97037.00;5103523;28;20183;-60
2021/06/17 05:24:29;;;;;;;8.20;5.50;;;;;;;20.09;79.04;97083.00;5103406;28;20036;-59
2021/06/17 05:26:55;;;;;;;13.07;6.47;;;;;;;20.38;76.45;97089.66;5103446;28;20047;-59
2021/06/17 05:29:21;;;;;;;5.50;4.65;;;;;;;20.63;74.02;97101.19;5102134;28;20028;-59
2021/06/17 05:31:49;;;;;;;8.98;5.65;;;;;;;20.83;72.73;97093.50;5103609;28;20062;-60
2021/06/17 05:34:14;;;;;;;4.70;3.90;;;;;;;20.93;72.70;97092.47;5102352;28;20032;-59
2021/06/17 05:36:40;;;;;;;6.50;4.22;;;;;;;19.58;73.88;96891.22;5103503;28;20032;-59
2021/06/17 05:39:06;;;;;;;6.00;4.50;;;;;;;21.38;73.75;97096.25;5103617;28;20023;-60
2021/06/17 05:41:31;;;;;;;10.13;4.80;;;;;;;21.65;71.90;97172.13;5102778;28;20459;-59
2021/06/17 05:43:57;;;;;;;9.65;5.55;;;;;;;20.18;69.96;96832.88;5101705;28;20044;-62
2021/06/17 05:46:23;;;;;;;6.35;4.50;;;;;;;19.83;70.07;96805.56;5101799;28;20034;-60
2021/06/17 05:48:48;;;;;;;11.60;4.75;;;;;;;21.45;71.09;97053.78;5103368;28;20042;-59
2021/06/17 05:51:14;;;;;;;10.73;7.00;;;;;;;22.13;70.95;97112.88;5103357;28;20438;-59
2021/06/17 05:53:39;;;;;;;9.43;4.63;;;;;;;22.37;70.06;97117.81;5103742;28;20478;-61
2021/06/17 05:56:05;;;;;;;4.68;4.25;;;;;;;22.19;69.92;97061.06;5103083;28;20072;-60
2021/06/17 05:58:31;;;;;;;7.50;4.78;;;;;;;22.45;70.42;97085.31;5103647;28;20043;-60
2021/06/17 06:00:57;;;;;;;6.55;4.15;;;;;;;23.04;69.63;97109.41;5101384;28;20035;-59
2021/06/17 06:03:22;;;;;;;6.53;4.57;;;;;;;23.04;69.31;97053.69;5104026;28;20051;-61
2021/06/17 06:05:48;;;;;;;5.55;5.05;;;;;;;23.24;68.88;97061.94;5105739;28;20474;-60
2021/06/17 06:08:14;;;;;;;5.95;4.40;;;;;;;22.92;63.40;96974.59;5108169;28;20039;-60
2021/06/17 06:10:42;;;;;;;5.18;3.95;;;;;;;24.06;62.95;97112.53;5107316;28;20102;-61
2021/06/17 06:13:08;;;;;;;5.78;4.13;;;;;;;24.32;60.66;97094.22;5104867;28;20027;-59
2021/06/17 06:15:34;;;;;;;3.78;3.17;;;;;;;23.41;60.18;96989.91;5100323;28;20034;-62
2021/06/17 06:18:04;;;;;;;7.53;4.60;;;;;;;23.93;63.08;97103.28;5104550;28;20203;-66
2021/06/17 06:20:30;;;;;;;4.88;4.15;;;;;;;23.29;64.95;97052.91;5105550;28;20127;-67
2021/06/17 06:22:56;;;;;;;10.63;4.97;;;;;;;23.60;67.37;97124.63;5103764;28;20087;-67
2021/06/17 06:25:24;;;;;;;6.30;4.55;;;;;;;23.24;66.89;97044.97;5104601;28;20062;-71
2021/06/17 06:27:50;;;;;;;5.47;4.75;;;;;;;23.78;66.80;97102.16;5122955;27;20042;-69
2021/06/17 06:30:16;;;;;;;5.22;4.60;;;;;;;23.64;66.73;97068.69;5106047;28;20039;-63
2021/06/17 06:32:41;;;;;;;4.88;4.45;;;;;;;22.82;66.74;96953.13;5105561;28;20104;-70
2021/06/17 06:35:07;;;;;;;8.10;4.78;;;;;;;23.07;73.21;97131.91;5105088;28;20040;-69
2021/06/17 06:37:33;;;;;;;6.75;5.05;;;;;;;23.12;72.21;97099.47;5105855;28;20502;-69
2021/06/17 06:39:58;;;;;;;7.35;6.25;;;;;;;22.87;71.56;97031.66;5102888;28;20059;-70
2021/06/17 06:42:24;;;;;;;7.85;5.68;;;;;;;23.30;71.28;97100.53;5106227;28;20115;-60
2021/06/17 06:44:50;;;;;;;5.45;5.05;;;;;;;23.36;73.04;97137.50;5106488;28;20034;-68
2021/06/17 06:47:15;;;;;;;5.50;4.80;;;;;;;22.95;71.90;97078.22;5104863;28;20150;-66
2021/06/17 06:49:41;;;;;;;8.13;4.97;;;;;;;23.27;72.88;97146.66;5105432;28;20028;-76
2021/06/17 06:52:06;;;;;;;6.82;5.70;;;;;;;23.43;72.38;97137.28;5104001;28;20040;-59
2021/06/17 06:54:32;;;;;;;6.50;5.15;;;;;;;23.21;70.86;97110.88;5106368;28;20585;-65
2021/06/17 06:56:57;;;;;;;7.82;5.60;;;;;;;23.34;71.07;97137.16;5105084;28;20035;-65
2021/06/17 06:59:23;;;;;;;6.68;5.60;;;;;;;23.51;71.07;97132.97;5105840;28;20816;-56
2021/06/17 07:01:49;;;;;;;6.32;5.10;;;;;;;23.77;70.83;97135.31;5104975;28;20040;-66
2021/06/17 07:04:14;;;;;;;6.70;5.07;;;;;;;23.44;70.97;97107.75;5105542;28;20554;-66
2021/06/17 07:06:41;;;;;;;11.05;7.38;;;;;;;23.12;76.90;97156.00;5106094;28;20055;-67
2021/06/17 07:09:06;;;;;;;9.13;6.20;;;;;;;22.60;74.14;97118.81;5105855;28;20032;-70
2021/06/17 07:11:33;;;;;;;5.88;5.30;;;;;;;23.37;71.36;97167.38;5103769;28;20032;-58
2021/06/17 07:13:59;;;;;;;9.68;5.55;;;;;;;23.39;73.93;97142.25;5106146;28;20035;-66
2021/06/17 07:16:25;;;;;;;9.13;6.43;;;;;;;23.17;76.22;97158.28;5103117;28;20019;-64
2021/06/17 07:18:51;;;;;;;7.30;6.35;;;;;;;22.71;78.16;97130.59;5105762;28;20514;-67
2021/06/17 07:21:17;;;;;;;7.25;6.47;;;;;;;22.88;78.92;97163.19;5105236;28;20042;-60
2021/06/17 07:23:45;;;;;;;8.82;5.95;;;;;;;22.30;77.70;97064.38;5104654;28;20521;-61
2021/06/17 07:26:11;;;;;;;7.93;6.88;;;;;;;22.16;77.64;97013.97;5103893;28;20118;-65
2021/06/17 07:28:36;;;;;;;6.53;5.50;;;;;;;23.14;75.21;97150.69;5105885;27;20123;-60
2021/06/17 07:31:02;;;;;;;9.25;5.10;;;;;;;23.19;74.84;97110.56;5104602;28;20024;-58
2021/06/17 07:33:28;;;;;;;7.72;5.15;;;;;;;22.81;73.71;97005.22;5104677;28;20043;-58
2021/06/17 07:35:54;;;;;;;6.78;5.03;;;;;;;23.81;71.90;97112.56;5104384;28;20039;-61
2021/06/17 07:38:19;;;;;;;7.22;5.38;;;;;;;24.31;70.46;97146.41;5105357;27;20496;-59
2021/06/17 07:40:45;;;;;;;6.25;4.30;;;;;;;23.43;69.80;97001.53;5103601;28;20123;-65
2021/06/17 07:43:11;;;;;;;6.30;4.75;;;;;;;24.17;71.74;97152.59;5104494;28;20040;-66
2021/06/17 07:45:37;;;;;;;9.90;5.45;;;;;;;23.71;70.90;97060.75;5103697;28;20126;-74
2021/06/17 07:48:04;;;;;;;8.93;4.88;;;;;;;21.95;69.77;96836.91;5103876;28;20043;-58
2021/06/17 07:50:29;;;;;;;5.93;4.95;;;;;;;23.70;71.84;97140.44;5104198;28;20039;-67
2021/06/17 07:52:55;;;;;;;7.45;4.80;;;;;;;23.67;73.23;97161.94;5105158;28;20036;-63
2021/06/17 07:55:20;;;;;;;5.75;4.80;;;;;;;23.63;74.70;97157.66;5103338;27;20494;-61
2021/06/17 07:57:46;;;;;;;10.00;7.18;;;;;;;23.72;75.11;97154.91;5092824;28;20058;-59
2021/06/17 08:00:12;;;;;;;8.20;5.70;;;;;;;23.13;75.19;97073.59;5110678;27;20055;-64
2021/06/17 08:02:37;;;;;;;12.70;5.95;;;;;;;23.53;75.56;97130.50;5103910;27;20411;-61
2021/06/17 08:05:03;;;;;;;7.53;5.75;;;;;;;23.60;72.96;97155.72;5104484;27;20031;-59
2021/06/17 08:07:29;;;;;;;6.63;6.03;;;;;;;23.66;73.76;97139.75;5100111;28;20543;-58
2021/06/17 08:09:54;;;;;;;9.85;6.20;;;;;;;23.70;72.11;97123.44;5103721;28;20066;-57
2021/06/17 08:12:20;;;;;;;6.53;5.50;;;;;;;23.96;70.70;97153.31;5103911;28;20032;-57
2021/06/17 08:14:46;;;;;;;6.20;5.63;;;;;;;24.05;72.31;97150.59;5101552;28;20092;-58
2021/06/17 08:17:11;;;;;;;5.45;4.95;;;;;;;24.36;72.39;97137.34;5101834;28;20036;-61
2021/06/17 08:19:37;;;;;;;6.10;5.45;;;;;;;24.73;72.52;97144.91;5104225;28;20036;-57
2021/06/17 08:22:05;;;;;;;6.90;5.28;;;;;;;25.06;70.19;97139.63;5103375;28;20040;-61
2021/06/17 08:24:33;;;;;;;6.82;4.68;;;;;;;25.26;64.27;97148.53;5102999;28;20127;-58
2021/06/17 08:26:59;;;;;;;4.82;4.40;;;;;;;25.50;66.76;97141.13;5102643;28;20513;-60
2021/06/17 08:29:24;;;;;;;4.63;4.20;;;;;;;25.84;64.80;97143.78;5103147;28;20119;-62
2021/06/17 08:31:50;;;;;;;6.10;4.57;;;;;;;25.98;60.52;97150.91;5103495;28;20397;-61
2021/06/17 08:34:15;;;;;;;6.15;4.68;;;;;;;25.65;61.46;97136.47;5104237;28;20028;-59
2021/06/17 08:36:41;;;;;;;7.38;5.43;;;;;;;25.42;60.49;97141.91;5104142;28;20035;-61
2021/06/17 08:39:07;;;;;;;3.90;3.58;;;;;;;25.05;60.69;97143.72;5103799;28;20918;-57
2021/06/17 08:41:33;;;;;;;3.72;3.42;;;;;;;24.66;60.84;97179.16;5102598;28;20024;-56
2021/06/17 08:43:59;;;;;;;4.80;4.50;;;;;;;24.47;61.02;97137.75;5103238;28;20043;-64
2021/06/17 08:46:25;;;;;;;5.53;4.13;;;;;;;23.19;62.55;97034.25;5102594;27;20028;-67
2021/06/17 08:48:51;;;;;;;9.07;6.28;;;;;;;23.35;62.37;97051.09;5111005;27;20031;-64
2021/06/17 08:51:18;;;;;;;5.30;3.40;;;;;;;24.04;59.01;97136.88;5117210;27;20557;-60
2021/06/17 08:53:44;;;;;;;3.55;3.25;;;;;;;23.92;63.18;97118.66;5104093;28;20069;-60
2021/06/17 08:56:09;;;;;;;5.53;3.63;;;;;;;24.05;63.16;97116.63;5102498;28;20067;-64
2021/06/17 08:58:35;;;;;;;6.20;4.68;;;;;;;24.32;65.10;97135.88;5103386;28;20066;-57
2021/06/17 09:01:09;;;;;;;13.25;7.03;;;;;;;24.32;67.86;97139.53;5103795;28;20558;-63
2021/06/17 09:03:39;;;;;;;4.60;4.13;;;;;;;24.60;66.67;97134.84;5103456;28;20574;-64
2021/06/17 09:06:05;;;;;;;5.28;4.35;;;;;;;24.70;70.41;97128.03;5100236;28;20035;-61
2021/06/17 09:08:31;;;;;;;7.38;6.53;;;;;;;24.88;67.38;97134.63;5103629;28;20040;-61
2021/06/17 09:10:57;;;;;;;5.20;4.45;;;;;;;25.05;65.55;97161.50;5103259;28;20410;-61
2021/06/17 09:13:30;;;;;;;5.88;4.13;;;;;;;25.31;60.76;97131.72;5103239;28;20027;-61
2021/06/17 09:15:56;;;;;;;4.55;3.60;;;;;;;25.44;59.85;97134.50;5103264;28;20037;-66
2021/06/17 09:18:27;;;;;;;3.85;3.55;;;;;;;25.17;57.21;97069.91;5103621;28;20122;-61
2021/06/17 09:21:10;;;;;;;3.85;3.55;;;;;;;25.40;56.83;97091.31;5103147;28;20140;-65
2021/06/17 09:23:43;;;;;;;;;;;;;;;25.93;55.38;97129.59;5103814;28;20070;-59
2021/06/17 09:26:17;;;;;;;5.28;3.80;;;;;;;25.82;55.49;97094.41;5101704;28;19915;-59
2021/06/17 09:29:01;;;;;;;4.50;4.07;;;;;;;25.96;54.21;97054.84;5115232;28;20108;-58
2021/06/17 09:31:32;;;;;;;4.10;3.50;;;;;;;26.62;51.25;97124.16;5083132;28;20039;-62
2021/06/17 09:34:25;;;;;;;3.90;3.55;;;;;;;26.53;50.72;97092.91;5086059;27;1736366;-66
2021/06/17 09:36:51;;;;;;;3.85;3.55;;;;;;;27.00;48.61;97115.94;5124625;27;20035;-61
2021/06/17 09:39:19;;;;;;;3.60;3.30;;;;;;;25.93;47.30;96952.78;5121908;27;20034;-60
2021/06/17 09:41:46;;;;;;;3.20;2.90;;;;;;;26.79;43.14;97079.97;5133932;27;20037;-63
2021/06/17 09:44:35;;;;;;;20.38;18.13;;;;;;;27.12;47.25;97097.91;5124799;27;20552;-58
2021/06/17 09:47:16;;;;;;;4.63;3.83;;;;;;;27.43;45.99;97103.34;5119062;27;20063;-57
2021/06/17 09:49:42;;;;;;;3.55;3.35;;;;;;;27.35;43.19;97040.28;5122733;27;20485;-63
2021/06/17 09:52:10;;;;;;;4.03;3.72;;;;;;;27.32;43.58;97058.34;5132267;27;20058;-59
2021/06/17 09:54:39;;;;;;;4.05;3.60;;;;;;;27.91;43.07;97048.88;5139521;27;20053;-64
2021/06/17 09:57:07;;;;;;;4.13;3.83;;;;;;;28.33;41.04;97084.97;5136618;27;20031;-63
2021/06/17 09:59:39;;;;;;;3.60;3.35;;;;;;;28.30;39.38;97080.22;5135055;27;20035;-59
2021/06/17 10:02:08;;;;;;;3.73;3.53;;;;;;;27.25;40.03;96921.31;5134391;27;20141;-61
2021/06/17 10:04:34;;;;;;;4.15;3.65;;;;;;;28.12;39.79;97079.09;5126872;27;20042;-61
2021/06/17 10:07:00;;;;;;;3.72;3.38;;;;;;;28.01;41.30;97047.50;5139452;27;20037;-60
2021/06/17 10:12:18;;;;;;;4.68;3.35;;;;;;;28.47;41.05;97062.19;5141182;27;20368;-58
2021/06/17 10:14:44;;;;;;;3.40;3.20;;;;;;;28.66;40.28;97062.84;5109113;27;20027;-65
2021/06/17 10:17:09;;;;;;;3.58;3.33;;;;;;;28.69;41.71;97079.75;5099856;28;20046;-59
2021/06/17 10:19:35;;;;;;;5.07;4.40;;;;;;;28.76;41.43;97027.25;5101087;28;20088;-68
2021/06/17 10:22:02;;;;;;;4.50;3.58;;;;;;;29.22;40.46;97051.16;5098663;28;20036;-60
2021/06/17 10:24:30;;;;;;;4.20;3.80;;;;;;;29.16;40.06;97016.03;5098771;28;20414;-67
2021/06/17 10:27:06;;;;;;;4.18;3.80;;;;;;;29.40;40.42;97045.22;5100751;28;20382;-60
2021/06/17 10:29:41;;;;;;;3.72;3.42;;;;;;;29.50;39.96;97029.53;5099942;28;20040;-63
2021/06/17 10:32:17;;;;;;;4.50;3.80;;;;;;;29.72;39.67;97041.31;5100048;28;20569;-60
2021/06/17 10:35:01;;;;;;;3.42;3.20;;;;;;;29.86;39.11;97023.31;5099991;28;20066;-61
2021/06/17 10:37:30;;;;;;;3.60;3.40;;;;;;;30.13;38.63;96999.28;5090613;28;20032;-58
2021/06/17 10:40:10;;;;;;;5.25;4.00;;;;;;;30.67;36.74;97035.50;5098991;28;20035;-60
2021/06/17 10:42:47;;;;;;;4.80;3.63;;;;;;;30.82;36.93;97025.56;5099215;28;20047;-62
2021/06/17 10:45:34;;;;;;;3.83;3.60;;;;;;;31.17;37.18;97033.94;5099950;28;20077;-60
2021/06/17 10:48:01;;;;;;;5.97;5.30;;;;;;;30.80;36.07;96993.81;5088015;28;20025;-66
2021/06/17 10:51:11;;;;;;;4.40;4.10;;;;;;;31.32;35.74;97010.91;5079425;28;20036;-60
2021/06/17 10:53:39;;;;;;;4.15;3.78;;;;;;;31.70;34.90;97008.31;5033807;28;20117;-59
2021/06/17 10:56:36;;;;;;;3.92;3.63;;;;;;;31.65;35.35;96982.47;5078025;28;20048;-69
2021/06/17 10:59:03;;;;;;;5.28;3.38;;;;;;;32.01;34.73;97010.34;5079623;28;20043;-68
2021/06/17 11:01:42;;;;;;;4.47;4.13;;;;;;;31.70;34.87;97008.31;5079518;28;20079;-62
2021/06/17 11:04:14;;;;;;;6.07;5.50;;;;;;;31.73;36.31;97010.16;5077241;28;20033;-67
2021/06/17 11:06:55;;;;;;;4.95;4.35;;;;;;;31.88;36.30;97001.41;5079576;28;20040;-69
2021/06/17 11:09:44;;;;;;;5.75;5.30;;;;;;;31.19;36.22;96933.25;5080682;28;20119;-69
2021/06/17 11:12:20;;;;;;;6.80;5.75;;;;;;;31.23;36.51;97002.50;5099448;28;20345;-61
2021/06/17 11:14:51;;;;;;;5.40;4.95;;;;;;;31.42;37.46;96975.84;5099789;28;20422;-69
2021/06/17 11:17:29;;;;;;;4.25;3.95;;;;;;;31.26;35.49;96998.59;5099840;28;20040;-68
2021/06/17 11:20:02;;;;;;;9.93;6.40;;;;;;;30.98;36.83;96998.41;5099866;28;20033;-60
2021/06/17 11:22:35;;;;;;;6.00;5.45;;;;;;;30.21;35.62;96844.00;5093429;28;20032;-61
2021/06/17 11:25:31;;;;;;;5.43;4.90;;;;;;;31.16;34.86;96985.78;5085314;28;20039;-60
2021/06/17 11:28:03;;;;;;;5.00;4.50;;;;;;;30.86;36.39;96991.00;5073557;28;20086;-68
2021/06/17 11:30:37;;;;;;;3.78;3.58;;;;;;;30.96;35.87;96989.53;5083693;28;20107;-60
2021/06/17 11:33:18;;;;;;;3.97;3.60;;;;;;;30.89;34.81;96985.03;5086274;28;20118;-69
2021/06/17 11:35:46;;;;;;;8.80;4.40;;;;;;;30.90;35.43;96978.03;5085795;28;20043;-64
2021/06/17 11:38:13;;;;;;;4.35;3.90;;;;;;;30.70;35.97;96954.41;5083866;28;20441;-63
2021/06/17 11:40:39;;;;;;;4.35;4.05;;;;;;;31.11;34.48;96978.72;5084438;28;20138;-66